createdAt,value
2018-09-23T00:00:21.885Z,11.70
2018-09-23T00:01:21.785Z,11.78
2018-09-23T00:02:21.686Z,11.70
2018-09-23T00:03:21.586Z,11.66
2018-09-23T00:04:21.487Z,11.70
2018-09-23T00:05:21.389Z,11.73
2018-09-23T00:06:21.275Z,11.75
2018-09-23T00:07:21.175Z,11.70
2018-09-23T00:08:21.077Z,11.73
2018-09-23T00:09:20.977Z,11.72
2018-09-23T00:10:20.881Z,11.72
2018-09-23T00:11:20.779Z,11.66
2018-09-23T00:12:20.666Z,11.66
2018-09-23T00:13:20.567Z,11.65
2018-09-23T00:14:20.468Z,11.63
2018-09-23T00:15:20.368Z,11.66
2018-09-23T00:16:20.269Z,11.69
2018-09-23T00:17:20.170Z,11.62
2018-09-23T00:18:20.060Z,11.60
2018-09-23T00:19:19.958Z,11.65
2018-09-23T00:20:19.860Z,11.60
2018-09-23T00:21:19.763Z,11.60
2018-09-23T00:22:19.714Z,11.68
2018-09-23T00:23:19.560Z,11.59
2018-09-23T00:24:19.449Z,11.60
2018-09-23T00:25:19.349Z,11.69
2018-09-23T00:26:19.250Z,11.55
2018-09-23T00:27:19.150Z,11.54
2018-09-23T00:28:19.051Z,11.57
2018-09-23T00:29:18.951Z,11.65
2018-09-23T00:30:18.853Z,11.62
2018-09-23T00:31:18.739Z,11.57
2018-09-23T00:32:18.640Z,11.54
2018-09-23T00:33:18.540Z,11.55
2018-09-23T00:34:18.441Z,11.50
2018-09-23T00:35:18.341Z,11.60
2018-09-23T00:36:18.242Z,11.59
2018-09-23T00:37:18.131Z,11.50
2018-09-23T00:38:18.031Z,11.50
2018-09-23T00:39:17.932Z,11.48
2018-09-23T00:40:17.833Z,11.52
2018-09-23T00:41:17.736Z,11.48
2018-09-23T00:42:17.636Z,11.47
2018-09-23T00:43:17.521Z,11.48
2018-09-23T00:44:17.421Z,11.57
2018-09-23T00:45:17.322Z,11.50
2018-09-23T00:46:17.228Z,11.51
2018-09-23T00:47:17.123Z,11.50
2018-09-23T00:48:17.023Z,11.44
2018-09-23T00:49:16.913Z,11.50
2018-09-23T00:50:16.813Z,11.50
2018-09-23T00:51:16.713Z,11.50
2018-09-23T00:52:16.614Z,11.50
2018-09-23T00:53:16.514Z,11.54
2018-09-23T00:54:16.421Z,11.48
2018-09-23T00:55:16.307Z,11.50
2018-09-23T00:56:16.204Z,11.52
2018-09-23T00:57:16.104Z,11.60
2018-09-23T00:58:16.004Z,11.52
2018-09-23T00:59:15.906Z,11.59
2018-09-23T01:00:15.806Z,11.57
2018-09-23T01:01:15.695Z,11.66
2018-09-23T01:02:15.594Z,11.65
2018-09-23T01:03:15.494Z,11.59
2018-09-23T01:04:15.396Z,11.63
2018-09-23T01:05:15.296Z,11.65
2018-09-23T01:06:15.196Z,11.66
2018-09-23T01:07:15.087Z,11.63
2018-09-23T01:08:14.985Z,11.69
2018-09-23T01:09:14.888Z,11.70
2018-09-23T01:10:14.785Z,11.66
2018-09-23T01:11:14.688Z,11.73
2018-09-23T01:12:14.587Z,11.72
2018-09-23T01:13:14.488Z,11.69
2018-09-23T01:14:14.376Z,11.62
2018-09-23T01:15:14.276Z,11.63
2018-09-23T01:16:14.177Z,11.62
2018-09-23T01:17:14.078Z,11.65
2018-09-23T01:18:13.978Z,11.51
2018-09-23T01:19:13.867Z,11.66
2018-09-23T01:20:13.767Z,11.62
2018-09-23T01:21:13.666Z,11.60
2018-09-23T01:22:13.571Z,11.65
2018-09-23T01:23:13.470Z,11.55
2018-09-23T01:24:13.369Z,11.57
2018-09-23T01:25:13.269Z,11.59
2018-09-23T01:26:13.158Z,11.59
2018-09-23T01:27:13.059Z,11.66
2018-09-23T01:28:12.959Z,11.54
2018-09-23T01:29:12.860Z,11.52
2018-09-23T01:30:12.760Z,11.54
2018-09-23T01:31:12.649Z,11.57
2018-09-23T01:32:12.548Z,11.50
2018-09-23T01:33:12.448Z,11.52
2018-09-23T01:34:12.349Z,11.45
2018-09-23T01:35:12.262Z,11.45
2018-09-23T01:36:12.163Z,11.41
2018-09-23T01:37:12.040Z,11.35
2018-09-23T01:38:11.940Z,11.37
2018-09-23T01:39:11.841Z,11.36
2018-09-23T01:40:11.742Z,11.33
2018-09-23T01:41:11.641Z,11.35
2018-09-23T01:42:11.543Z,11.26
2018-09-23T01:43:11.430Z,11.40
2018-09-23T01:44:11.329Z,11.35
2018-09-23T01:45:11.233Z,11.27
2018-09-23T01:46:11.132Z,11.26
2018-09-23T01:47:11.031Z,11.27
2018-09-23T01:48:10.921Z,11.26
2018-09-23T01:49:10.821Z,11.30
2018-09-23T01:50:10.722Z,11.26
2018-09-23T01:51:10.622Z,11.18
2018-09-23T01:52:10.521Z,11.19
2018-09-23T01:53:10.426Z,11.18
2018-09-23T01:54:10.311Z,11.22
2018-09-23T01:55:10.211Z,11.17
2018-09-23T01:56:10.112Z,11.11
2018-09-23T01:57:10.011Z,11.08
2018-09-23T01:58:09.913Z,11.07
2018-09-23T01:59:09.812Z,11.11
2018-09-23T02:00:09.702Z,11.04
2018-09-23T02:01:09.612Z,10.96
2018-09-23T02:02:09.504Z,10.93
2018-09-23T02:03:09.406Z,11.00
2018-09-23T02:04:09.291Z,10.96
2018-09-23T02:05:09.194Z,11.00
2018-09-23T02:06:09.092Z,10.84
2018-09-23T02:07:08.992Z,10.89
2018-09-23T02:08:08.893Z,10.96
2018-09-23T02:09:08.783Z,10.89
2018-09-23T02:10:08.682Z,10.89
2018-09-23T02:11:08.582Z,10.81
2018-09-23T02:12:08.483Z,10.75
2018-09-23T02:13:08.373Z,10.75
2018-09-23T02:14:08.271Z,10.76
2018-09-23T02:15:08.172Z,10.71
2018-09-23T02:16:08.072Z,10.72
2018-09-23T02:17:07.974Z,10.71
2018-09-23T02:18:07.862Z,10.68
2018-09-23T02:19:07.763Z,10.67
2018-09-23T02:20:07.663Z,10.67
2018-09-23T02:21:07.581Z,10.74
2018-09-23T02:22:07.466Z,10.71
2018-09-23T02:23:07.352Z,10.78
2018-09-23T02:24:07.252Z,10.75
2018-09-23T02:25:07.153Z,10.75
2018-09-23T02:26:07.053Z,10.75
2018-09-23T02:27:06.947Z,10.78
2018-09-23T02:28:06.843Z,10.69
2018-09-23T02:29:06.745Z,10.75
2018-09-23T02:30:06.644Z,10.81
2018-09-23T02:31:06.545Z,10.78
2018-09-23T02:32:06.432Z,10.79
2018-09-23T02:33:06.332Z,10.71
2018-09-23T02:34:06.233Z,10.79
2018-09-23T02:35:06.134Z,10.78
2018-09-23T02:36:06.046Z,10.78
2018-09-23T02:37:05.927Z,10.71
2018-09-23T02:38:05.824Z,10.71
2018-09-23T02:39:05.723Z,10.64
2018-09-23T02:40:05.626Z,10.71
2018-09-23T02:41:05.512Z,10.63
2018-09-23T02:42:05.412Z,10.64
2018-09-23T02:43:05.313Z,10.69
2018-09-23T02:44:05.213Z,10.60
2018-09-23T02:45:05.114Z,10.63
2018-09-23T02:46:05.001Z,10.59
2018-09-23T02:47:04.902Z,10.59
2018-09-23T02:48:04.803Z,10.59
2018-09-23T02:49:04.707Z,10.60
2018-09-23T02:50:04.594Z,10.53
2018-09-23T02:51:04.493Z,10.56
2018-09-23T02:52:04.393Z,10.56
2018-09-23T02:53:04.297Z,10.63
2018-09-23T02:54:04.193Z,10.56
2018-09-23T02:55:04.089Z,10.60
2018-09-23T02:56:03.984Z,10.56
2018-09-23T02:57:03.883Z,10.59
2018-09-23T02:58:03.785Z,10.57
2018-09-23T02:59:03.671Z,10.63
2018-09-23T03:00:03.572Z,10.59
2018-09-23T03:01:03.472Z,10.60
2018-09-23T03:02:03.374Z,10.53
2018-09-23T03:03:03.261Z,10.59
2018-09-23T03:04:03.171Z,10.57
2018-09-23T03:05:03.063Z,10.54
2018-09-23T03:06:02.964Z,10.49
2018-09-23T03:07:02.852Z,10.42
2018-09-23T03:08:02.751Z,10.44
2018-09-23T03:09:02.652Z,10.49
2018-09-23T03:10:02.555Z,10.44
2018-09-23T03:11:02.442Z,10.37
2018-09-23T03:12:02.343Z,10.44
2018-09-23T03:13:02.244Z,10.48
2018-09-23T03:14:02.142Z,10.41
2018-09-23T03:15:02.045Z,10.37
2018-09-23T03:16:01.931Z,10.37
2018-09-23T03:17:01.834Z,10.40
2018-09-23T03:18:01.733Z,10.37
2018-09-23T03:19:01.633Z,10.40
2018-09-23T03:20:01.522Z,10.38
2018-09-23T03:21:01.423Z,10.33
2018-09-23T03:22:01.325Z,10.30
2018-09-23T03:23:01.225Z,10.35
2018-09-23T03:24:01.111Z,10.25
2018-09-23T03:25:01.011Z,10.35
2018-09-23T03:26:00.911Z,10.30
2018-09-23T03:27:00.814Z,10.30
2018-09-23T03:28:00.702Z,10.35
2018-09-23T03:29:00.604Z,10.31
2018-09-23T03:30:00.502Z,10.33
2018-09-23T03:31:00.404Z,10.31
2018-09-23T03:32:00.293Z,10.34
2018-09-23T03:33:00.191Z,10.22
2018-09-23T03:34:00.094Z,10.33
2018-09-23T03:34:59.991Z,10.31
2018-09-23T03:35:59.892Z,10.22
2018-09-23T03:36:59.782Z,10.20
2018-09-23T03:37:59.682Z,10.20
2018-09-23T03:38:59.582Z,10.17
2018-09-23T03:39:59.483Z,10.13
2018-09-23T03:40:59.383Z,10.17
2018-09-23T03:41:59.286Z,10.09
2018-09-23T03:42:59.172Z,10.02
2018-09-23T03:43:59.071Z,10.02
2018-09-23T03:44:58.961Z,10.05
2018-09-23T03:45:58.861Z,10.02
2018-09-23T03:46:58.762Z,9.89
2018-09-23T03:47:58.663Z,9.91
2018-09-23T03:48:58.550Z,9.83
2018-09-23T03:49:58.450Z,9.77
2018-09-23T03:50:58.351Z,9.77
2018-09-23T03:51:58.254Z,9.83
2018-09-23T03:52:58.141Z,9.77
2018-09-23T03:53:58.042Z,9.69
2018-09-23T03:54:57.942Z,9.72
2018-09-23T03:55:57.843Z,9.68
2018-09-23T03:56:57.730Z,9.72
2018-09-23T03:57:57.696Z,9.72
2018-09-23T03:58:57.531Z,9.65
2018-09-23T03:59:57.432Z,9.69
2018-09-23T04:00:57.320Z,9.69
2018-09-23T04:01:57.221Z,9.62
2018-09-23T04:02:57.121Z,9.62
2018-09-23T04:03:57.011Z,9.64
2018-09-23T04:04:56.909Z,9.72
2018-09-23T04:05:56.810Z,9.62
2018-09-23T04:06:56.711Z,9.61
2018-09-23T04:07:56.611Z,9.74
2018-09-23T04:08:56.500Z,9.64
2018-09-23T04:09:56.402Z,9.66
2018-09-23T04:10:56.302Z,9.58
2018-09-23T04:11:56.209Z,9.62
2018-09-23T04:12:56.092Z,9.59
2018-09-23T04:13:55.989Z,9.64
2018-09-23T04:14:55.933Z,9.59
2018-09-23T04:15:55.779Z,9.73
2018-09-23T04:16:55.679Z,9.66
2018-09-23T04:17:55.580Z,9.68
2018-09-23T04:18:55.481Z,9.74
2018-09-23T04:19:55.371Z,9.72
2018-09-23T04:20:55.275Z,9.68
2018-09-23T04:21:55.168Z,9.74
2018-09-23T04:22:55.069Z,9.77
2018-09-23T04:23:54.958Z,9.82
2018-09-23T04:24:54.858Z,9.82
2018-09-23T04:25:54.759Z,9.79
2018-09-23T04:26:54.648Z,9.94
2018-09-23T04:27:54.547Z,9.95
2018-09-23T04:28:54.447Z,9.94
2018-09-23T04:29:54.348Z,9.97
2018-09-23T04:30:54.236Z,10.02
2018-09-23T04:31:54.137Z,10.05
2018-09-23T04:32:54.038Z,10.02
2018-09-23T04:33:53.938Z,10.05
2018-09-23T04:34:53.826Z,10.19
2018-09-23T04:35:53.728Z,10.30
2018-09-23T04:36:53.629Z,10.25
2018-09-23T04:37:53.529Z,10.23
2018-09-23T04:38:53.417Z,10.23
2018-09-23T04:39:53.316Z,10.23
2018-09-23T04:40:53.217Z,10.23
2018-09-23T04:41:53.124Z,10.34
2018-09-23T04:42:53.009Z,10.40
2018-09-23T04:43:52.906Z,10.38
2018-09-23T04:44:53.068Z,10.37
2018-09-23T04:45:52.707Z,10.33
2018-09-23T04:46:52.603Z,10.35
2018-09-23T04:47:52.496Z,10.46
2018-09-23T04:48:52.402Z,10.44
2018-09-23T04:49:52.297Z,10.44
2018-09-23T04:50:52.201Z,10.60
2018-09-23T04:51:52.086Z,10.59
2018-09-23T04:52:51.985Z,10.54
2018-09-23T04:53:51.886Z,10.64
2018-09-23T04:54:51.786Z,10.64
2018-09-23T04:55:51.676Z,10.75
2018-09-23T04:56:51.576Z,10.72
2018-09-23T04:57:51.476Z,10.76
2018-09-23T04:58:51.377Z,10.84
2018-09-23T04:59:51.277Z,10.79
2018-09-23T05:00:51.165Z,10.69
2018-09-23T05:01:51.067Z,10.78
2018-09-23T05:02:50.966Z,10.75
2018-09-23T05:03:50.867Z,10.84
2018-09-23T05:04:51.067Z,10.84
2018-09-23T05:05:50.660Z,11.02
2018-09-23T05:06:50.557Z,10.93
2018-09-23T05:07:50.458Z,10.97
2018-09-23T05:08:50.360Z,11.02
2018-09-23T05:09:50.246Z,10.87
2018-09-23T05:10:50.145Z,10.96
2018-09-23T05:11:50.046Z,10.99
2018-09-23T05:12:49.952Z,10.92
2018-09-23T05:13:49.847Z,10.89
2018-09-23T05:14:49.987Z,11.05
2018-09-23T05:15:49.640Z,11.05
2018-09-23T05:16:49.537Z,11.10
2018-09-23T05:17:49.438Z,11.10
2018-09-23T05:18:49.339Z,11.04
2018-09-23T05:19:49.229Z,11.14
2018-09-23T05:20:49.128Z,11.15
2018-09-23T05:21:49.027Z,11.19
2018-09-23T05:22:48.927Z,11.18
2018-09-23T05:23:48.829Z,11.25
2018-09-23T05:24:48.979Z,11.30
2018-09-23T05:25:48.619Z,11.26
2018-09-23T05:26:48.518Z,11.32
2018-09-23T05:27:48.419Z,11.32
2018-09-23T05:28:48.319Z,11.27
2018-09-23T05:29:48.219Z,11.32
2018-09-23T05:30:48.107Z,11.32
2018-09-23T05:31:48.008Z,11.41
2018-09-23T05:32:47.908Z,11.29
2018-09-23T05:33:47.808Z,11.30
2018-09-23T05:34:47.709Z,11.40
2018-09-23T05:35:47.598Z,11.47
2018-09-23T05:36:47.499Z,11.55
2018-09-23T05:37:47.399Z,11.44
2018-09-23T05:38:47.300Z,11.50
2018-09-23T05:39:47.199Z,11.48
2018-09-23T05:40:47.100Z,11.45
2018-09-23T05:41:46.988Z,11.57
2018-09-23T05:42:46.890Z,11.66
2018-09-23T05:43:46.790Z,11.69
2018-09-23T05:44:46.691Z,11.70
2018-09-23T05:45:46.593Z,11.81
2018-09-23T05:46:46.491Z,11.87
2018-09-23T05:47:46.380Z,11.95
2018-09-23T05:48:46.281Z,11.97
2018-09-23T05:49:46.181Z,12.02
2018-09-23T05:50:46.082Z,12.06
2018-09-23T05:51:45.985Z,12.15
2018-09-23T05:52:45.883Z,12.07
2018-09-23T05:53:45.776Z,12.09
2018-09-23T05:54:45.673Z,12.24
2018-09-23T05:55:45.571Z,12.35
2018-09-23T05:56:45.471Z,12.32
2018-09-23T05:57:45.376Z,12.40
2018-09-23T05:58:45.272Z,12.45
2018-09-23T05:59:45.175Z,12.46
2018-09-23T06:00:45.066Z,12.49
2018-09-23T06:01:44.963Z,12.50
2018-09-23T06:02:44.863Z,12.55
2018-09-23T06:03:44.764Z,12.50
2018-09-23T06:04:44.665Z,12.53
2018-09-23T06:05:44.565Z,12.57
2018-09-23T06:06:44.465Z,12.57
2018-09-23T06:07:44.365Z,12.62
2018-09-23T06:08:44.312Z,12.62
2018-09-23T06:09:44.154Z,12.62
2018-09-23T06:10:44.055Z,12.61
2018-09-23T06:11:43.958Z,12.65
2018-09-23T06:12:43.856Z,12.58
2018-09-23T06:13:43.757Z,12.62
2018-09-23T06:14:43.656Z,12.73
2018-09-23T06:15:43.557Z,12.75
2018-09-23T06:16:43.457Z,12.73
2018-09-23T06:17:43.359Z,12.72
2018-09-23T06:18:43.247Z,12.73
2018-09-23T06:19:43.147Z,12.75
2018-09-23T06:20:43.048Z,12.73
2018-09-23T06:21:42.954Z,12.75
2018-09-23T06:22:42.849Z,12.94
2018-09-23T06:23:42.750Z,12.87
2018-09-23T06:24:42.650Z,12.97
2018-09-23T06:25:42.551Z,13.05
2018-09-23T06:26:42.441Z,13.03
2018-09-23T06:27:42.340Z,13.04
2018-09-23T06:28:42.239Z,13.04
2018-09-23T06:29:42.141Z,13.05
2018-09-23T06:30:42.041Z,13.09
2018-09-23T06:31:41.942Z,13.15
2018-09-23T06:32:41.843Z,13.35
2018-09-23T06:33:41.743Z,13.30
2018-09-23T06:34:41.893Z,13.50
2018-09-23T06:35:41.548Z,13.59
2018-09-23T06:36:41.455Z,13.59
2018-09-23T06:37:41.345Z,13.62
2018-09-23T06:38:41.234Z,13.68
2018-09-23T06:39:41.155Z,13.71
2018-09-23T06:40:41.035Z,13.67
2018-09-23T06:41:40.935Z,13.71
2018-09-23T06:42:40.836Z,13.75
2018-09-23T06:43:40.736Z,13.77
2018-09-23T06:44:40.889Z,13.67
2018-09-23T06:45:40.542Z,13.68
2018-09-23T06:46:40.438Z,13.70
2018-09-23T06:47:40.338Z,13.59
2018-09-23T06:48:40.240Z,13.67
2018-09-23T06:49:40.140Z,13.57
2018-09-23T06:50:40.040Z,13.56
2018-09-23T06:51:39.941Z,13.59
2018-09-23T06:52:39.841Z,13.60
2018-09-23T06:53:39.742Z,13.74
2018-09-23T06:54:39.643Z,13.70
2018-09-23T06:55:39.543Z,13.83
2018-09-23T06:56:39.434Z,13.81
2018-09-23T06:57:39.333Z,13.89
2018-09-23T06:58:39.233Z,13.86
2018-09-23T06:59:39.132Z,13.95
2018-09-23T07:00:39.034Z,14.00
2018-09-23T07:01:38.934Z,13.99
2018-09-23T07:02:38.834Z,14.04
2018-09-23T07:03:38.734Z,14.23
2018-09-23T07:04:38.665Z,14.32
2018-09-23T07:05:38.535Z,14.36
2018-09-23T07:06:38.436Z,14.44
2018-09-23T07:07:38.337Z,14.60
2018-09-23T07:08:38.237Z,14.59
2018-09-23T07:09:38.137Z,14.58
2018-09-23T07:10:38.042Z,14.60
2018-09-23T07:11:37.939Z,14.81
2018-09-23T07:12:37.840Z,14.77
2018-09-23T07:13:37.741Z,14.78
2018-09-23T07:14:37.891Z,14.81
2018-09-23T07:15:37.542Z,14.82
2018-09-23T07:16:37.443Z,14.89
2018-09-23T07:17:37.342Z,14.92
2018-09-23T07:18:37.242Z,15.06
2018-09-23T07:19:37.144Z,15.07
2018-09-23T07:20:37.045Z,15.17
2018-09-23T07:21:36.944Z,15.24
2018-09-23T07:22:36.846Z,15.31
2018-09-23T07:23:36.752Z,15.24
2018-09-23T07:24:36.947Z,15.22
2018-09-23T07:25:36.547Z,15.22
2018-09-23T07:26:36.447Z,15.31
2018-09-23T07:27:36.348Z,15.19
2018-09-23T07:28:36.249Z,15.29
2018-09-23T07:29:36.154Z,15.29
2018-09-23T07:30:36.050Z,15.31
2018-09-23T07:31:35.952Z,15.33
2018-09-23T07:32:35.864Z,15.40
2018-09-23T07:33:35.766Z,15.43
2018-09-23T07:34:35.666Z,15.39
2018-09-23T07:35:35.566Z,15.43
2018-09-23T07:36:35.514Z,15.44
2018-09-23T07:37:35.366Z,15.51
2018-09-23T07:38:35.270Z,15.61
2018-09-23T07:39:35.223Z,15.67
2018-09-23T07:40:35.071Z,15.76
2018-09-23T07:41:34.970Z,15.79
2018-09-23T07:42:34.869Z,15.79
2018-09-23T07:43:34.770Z,15.83
2018-09-23T07:44:34.921Z,15.77
2018-09-23T07:45:34.571Z,15.86
2018-09-23T07:46:34.473Z,15.80
2018-09-23T07:47:34.384Z,15.79
2018-09-23T07:48:34.285Z,15.84
2018-09-23T07:49:34.185Z,15.97
2018-09-23T07:50:34.086Z,15.88
2018-09-23T07:51:33.999Z,16.01
2018-09-23T07:52:33.886Z,15.97
2018-09-23T07:53:33.787Z,16.13
2018-09-23T07:54:33.689Z,16.17
2018-09-23T07:55:33.589Z,16.28
2018-09-23T07:56:33.509Z,16.33
2018-09-23T07:57:33.403Z,16.29
2018-09-23T07:58:33.303Z,16.31
2018-09-23T07:59:33.209Z,16.31
2018-09-23T08:00:33.108Z,16.39
2018-09-23T08:01:33.007Z,16.33
2018-09-23T08:02:32.907Z,16.35
2018-09-23T08:03:32.856Z,16.33
2018-09-23T08:04:32.957Z,16.38
2018-09-23T08:05:32.608Z,16.46
2018-09-23T08:06:32.520Z,16.65
2018-09-23T08:07:32.420Z,16.71
2018-09-23T08:08:32.321Z,16.79
2018-09-23T08:09:32.221Z,16.83
2018-09-23T08:10:32.122Z,16.93
2018-09-23T08:11:32.022Z,16.94
2018-09-23T08:12:31.943Z,16.79
2018-09-23T08:13:31.989Z,16.81
2018-09-23T08:14:32.247Z,16.86
2018-09-23T08:15:31.639Z,16.93
2018-09-23T08:16:31.538Z,16.91
2018-09-23T08:17:31.438Z,16.99
2018-09-23T08:18:31.339Z,16.99
2018-09-23T08:19:31.268Z,16.97
2018-09-23T08:20:31.176Z,17.09
2018-09-23T08:21:31.053Z,17.11
2018-09-23T08:22:30.955Z,17.14
2018-09-23T08:23:30.868Z,17.09
2018-09-23T08:24:30.769Z,17.15
2018-09-23T08:25:30.692Z,17.27
2018-09-23T08:26:30.640Z,17.41
2018-09-23T08:27:30.470Z,17.45
2018-09-23T08:28:30.370Z,17.41
2018-09-23T08:29:30.272Z,17.33
2018-09-23T08:30:30.172Z,17.39
2018-09-23T08:31:30.085Z,17.19
2018-09-23T08:32:29.985Z,17.15
2018-09-23T08:33:29.886Z,17.19
2018-09-23T08:34:29.787Z,17.08
2018-09-23T08:35:29.686Z,17.01
2018-09-23T08:36:29.590Z,16.99
2018-09-23T08:37:29.587Z,17.09
2018-09-23T08:38:29.402Z,17.05
2018-09-23T08:39:29.304Z,17.08
2018-09-23T08:40:29.203Z,17.01
2018-09-23T08:41:29.105Z,17.04
2018-09-23T08:42:29.015Z,17.19
2018-09-23T08:43:28.916Z,17.19
2018-09-23T08:44:28.817Z,17.15
2018-09-23T08:45:28.717Z,17.11
2018-09-23T08:46:28.618Z,17.04
2018-09-23T08:47:28.531Z,17.04
2018-09-23T08:48:28.514Z,17.08
2018-09-23T08:49:28.333Z,17.01
2018-09-23T08:50:28.233Z,17.09
2018-09-23T08:51:28.135Z,17.15
2018-09-23T08:52:28.052Z,17.04
2018-09-23T08:53:27.946Z,17.15
2018-09-23T08:54:27.847Z,17.26
2018-09-23T08:55:27.749Z,17.49
2018-09-23T08:56:27.649Z,17.71
2018-09-23T08:57:27.550Z,17.98
2018-09-23T08:58:27.465Z,17.98
2018-09-23T08:59:27.363Z,18.10
2018-09-23T09:00:27.264Z,18.23
2018-09-23T09:01:27.165Z,18.25
2018-09-23T09:02:27.070Z,18.41
2018-09-23T09:03:26.978Z,18.47
2018-09-23T09:04:26.878Z,18.49
2018-09-23T09:05:26.780Z,18.50
2018-09-23T09:06:26.679Z,18.56
2018-09-23T09:07:26.593Z,18.50
2018-09-23T09:08:26.494Z,18.45
2018-09-23T09:09:26.394Z,18.49
2018-09-23T09:10:26.295Z,18.26
2018-09-23T09:11:26.249Z,18.23
2018-09-23T09:12:26.112Z,18.26
2018-09-23T09:13:26.009Z,18.23
2018-09-23T09:14:25.909Z,18.20
2018-09-23T09:15:25.823Z,18.37
2018-09-23T09:16:25.722Z,18.29
2018-09-23T09:17:25.624Z,18.22
2018-09-23T09:18:25.702Z,18.31
2018-09-23T09:19:25.436Z,18.35
2018-09-23T09:20:25.336Z,18.45
2018-09-23T09:21:25.238Z,18.55
2018-09-23T09:22:25.153Z,18.38
2018-09-23T09:23:25.055Z,18.25
2018-09-23T09:24:24.953Z,18.41
2018-09-23T09:25:24.866Z,18.53
2018-09-23T09:26:24.767Z,18.60
2018-09-23T09:27:24.666Z,18.38
2018-09-23T09:28:24.568Z,18.41
2018-09-23T09:29:24.481Z,18.70
2018-09-23T09:30:24.382Z,18.81
2018-09-23T09:31:24.282Z,18.90
2018-09-23T09:32:24.194Z,18.99
2018-09-23T09:33:24.108Z,19.14
2018-09-23T09:34:24.009Z,19.02
2018-09-23T09:35:23.926Z,19.02
2018-09-23T09:36:23.828Z,19.00
2018-09-23T09:37:23.710Z,19.07
2018-09-23T09:38:23.625Z,18.99
2018-09-23T09:39:23.524Z,18.88
2018-09-23T09:40:23.428Z,18.93
2018-09-23T09:41:23.337Z,18.96
2018-09-23T09:42:23.239Z,18.74
2018-09-23T09:43:23.140Z,18.92
2018-09-23T09:44:23.050Z,18.71
2018-09-23T09:45:22.966Z,18.89
2018-09-23T09:46:22.854Z,18.96
2018-09-23T09:47:22.754Z,18.90
2018-09-23T09:48:22.666Z,18.92
2018-09-23T09:49:22.567Z,18.96
2018-09-23T09:50:22.467Z,18.95
2018-09-23T09:51:22.380Z,18.83
2018-09-23T09:52:22.281Z,19.00
2018-09-23T09:53:22.184Z,18.75
2018-09-23T09:54:22.096Z,18.75
2018-09-23T09:55:22.011Z,18.71
2018-09-23T09:56:21.896Z,18.49
2018-09-23T09:57:21.813Z,18.55
2018-09-23T09:58:21.710Z,18.59
2018-09-23T09:59:21.610Z,18.55
2018-09-23T10:00:21.524Z,18.66
2018-09-23T10:01:21.423Z,18.71
2018-09-23T10:02:21.325Z,18.71
2018-09-23T10:03:21.238Z,18.77
2018-09-23T10:04:21.139Z,18.70
2018-09-23T10:05:21.037Z,18.88
2018-09-23T10:06:20.952Z,18.74
2018-09-23T10:07:20.852Z,18.77
2018-09-23T10:08:20.752Z,18.75
2018-09-23T10:09:20.665Z,18.90
2018-09-23T10:10:20.565Z,18.84
2018-09-23T10:11:20.499Z,18.98
2018-09-23T10:12:20.379Z,18.89
2018-09-23T10:13:20.280Z,19.08
2018-09-23T10:14:20.182Z,19.07
2018-09-23T10:15:20.094Z,19.11
2018-09-23T10:16:19.994Z,19.14
2018-09-23T10:17:19.894Z,19.31
2018-09-23T10:18:19.808Z,19.39
2018-09-23T10:19:20.013Z,19.30
2018-09-23T10:20:19.609Z,19.45
2018-09-23T10:21:19.521Z,19.51
2018-09-23T10:22:19.423Z,19.69
2018-09-23T10:23:19.409Z,19.67
2018-09-23T10:24:19.238Z,19.49
2018-09-23T10:25:19.137Z,19.59
2018-09-23T10:26:19.039Z,19.64
2018-09-23T10:27:18.951Z,19.56
2018-09-23T10:28:18.852Z,19.69
2018-09-23T10:29:18.756Z,19.76
2018-09-23T10:30:18.665Z,19.62
2018-09-23T10:31:18.686Z,19.58
2018-09-23T10:32:18.478Z,19.58
2018-09-23T10:33:18.378Z,19.54
2018-09-23T10:34:18.280Z,19.40
2018-09-23T10:35:18.192Z,19.39
2018-09-23T10:36:18.213Z,19.19
2018-09-23T10:37:17.993Z,19.22
2018-09-23T10:38:17.908Z,18.90
2018-09-23T10:39:17.807Z,18.88
2018-09-23T10:40:17.709Z,18.68
2018-09-23T10:41:17.667Z,18.68
2018-09-23T10:42:17.521Z,18.60
2018-09-23T10:43:17.422Z,18.53
2018-09-23T10:44:17.335Z,18.34
2018-09-23T10:45:17.235Z,18.18
2018-09-23T10:46:17.137Z,18.16
2018-09-23T10:47:17.051Z,18.15
2018-09-23T10:48:16.951Z,17.90
2018-09-23T10:49:17.101Z,17.74
2018-09-23T10:50:16.764Z,17.78
2018-09-23T10:51:16.663Z,17.70
2018-09-23T10:52:16.564Z,17.83
2018-09-23T10:53:16.478Z,17.90
2018-09-23T10:54:16.378Z,17.85
2018-09-23T10:55:16.278Z,17.78
2018-09-23T10:56:16.205Z,17.86
2018-09-23T10:57:16.094Z,17.98
2018-09-23T10:58:15.992Z,17.86
2018-09-23T10:59:15.894Z,17.95
2018-09-23T11:00:15.807Z,17.65
2018-09-23T11:01:15.711Z,17.51
2018-09-23T11:02:15.609Z,17.51
2018-09-23T11:03:15.520Z,17.41
2018-09-23T11:04:15.487Z,17.42
2018-09-23T11:05:15.321Z,17.38
2018-09-23T11:06:15.225Z,17.36
2018-09-23T11:07:15.140Z,17.16
2018-09-23T11:08:15.036Z,17.20
2018-09-23T11:09:14.937Z,17.23
2018-09-23T11:10:14.838Z,17.23
2018-09-23T11:11:14.750Z,17.16
2018-09-23T11:12:14.654Z,16.93
2018-09-23T11:13:14.599Z,16.83
2018-09-23T11:14:14.455Z,16.79
2018-09-23T11:15:14.405Z,16.72
2018-09-23T11:16:14.265Z,16.47
2018-09-23T11:17:14.165Z,16.32
2018-09-23T11:18:14.068Z,16.24
2018-09-23T11:19:13.967Z,16.28
2018-09-23T11:20:13.880Z,16.17
2018-09-23T11:21:13.781Z,16.23
2018-09-23T11:22:13.680Z,16.13
2018-09-23T11:23:13.622Z,16.17
2018-09-23T11:24:13.496Z,16.23
2018-09-23T11:25:13.397Z,16.12
2018-09-23T11:26:13.296Z,15.98
2018-09-23T11:27:13.197Z,16.04
2018-09-23T11:28:13.100Z,15.88
2018-09-23T11:29:12.997Z,15.77
2018-09-23T11:30:12.899Z,15.65
2018-09-23T11:31:12.812Z,15.58
2018-09-23T11:32:12.713Z,15.43
2018-09-23T11:33:12.614Z,15.43
2018-09-23T11:34:12.512Z,15.39
2018-09-23T11:35:12.413Z,15.24
2018-09-23T11:36:12.314Z,15.28
2018-09-23T11:37:12.217Z,15.25
2018-09-23T11:38:12.116Z,15.39
2018-09-23T11:39:12.029Z,15.31
2018-09-23T11:40:11.929Z,15.44
2018-09-23T11:41:11.830Z,15.27
2018-09-23T11:42:11.729Z,15.28
2018-09-23T11:43:11.631Z,15.24
2018-09-23T11:44:11.532Z,15.18
2018-09-23T11:45:11.434Z,15.03
2018-09-23T11:46:11.333Z,15.06
2018-09-23T11:47:11.234Z,14.91
2018-09-23T11:48:11.144Z,14.94
2018-09-23T11:49:11.046Z,14.91
2018-09-23T11:50:10.949Z,14.79
2018-09-23T11:51:10.848Z,14.86
2018-09-23T11:52:10.747Z,14.79
2018-09-23T11:53:10.649Z,14.54
2018-09-23T11:54:10.548Z,14.44
2018-09-23T11:55:10.449Z,14.32
2018-09-23T11:56:10.350Z,14.29
2018-09-23T11:57:10.250Z,14.29
2018-09-23T11:58:10.153Z,14.15
2018-09-23T11:59:10.053Z,14.14
2018-09-23T12:00:09.953Z,14.08
2018-09-23T12:01:09.853Z,14.11
2018-09-23T12:02:09.806Z,14.00
2018-09-23T12:03:09.654Z,13.85
2018-09-23T12:04:09.556Z,13.78
2018-09-23T12:05:09.455Z,13.97
2018-09-23T12:06:09.356Z,13.97
2018-09-23T12:07:09.256Z,13.97
2018-09-23T12:08:09.158Z,13.92
2018-09-23T12:09:09.057Z,13.96
2018-09-23T12:10:08.979Z,13.95
2018-09-23T12:11:08.859Z,13.89
2018-09-23T12:12:08.759Z,13.92
2018-09-23T12:13:08.662Z,13.90
2018-09-23T12:14:08.561Z,13.92
2018-09-23T12:15:08.461Z,13.86
2018-09-23T12:16:08.361Z,13.97
2018-09-23T12:17:08.262Z,13.87
2018-09-23T12:18:08.169Z,13.71
2018-09-23T12:19:08.062Z,13.78
2018-09-23T12:20:07.966Z,13.77
2018-09-23T12:21:07.865Z,13.77
2018-09-23T12:22:07.764Z,13.75
2018-09-23T12:23:07.665Z,13.71
2018-09-23T12:24:07.571Z,13.72
2018-09-23T12:25:07.466Z,13.68
2018-09-23T12:26:07.367Z,13.57
2018-09-23T12:27:07.268Z,13.65
2018-09-23T12:28:07.167Z,13.53
2018-09-23T12:29:07.068Z,13.50
2018-09-23T12:30:06.959Z,13.56
2018-09-23T12:31:06.859Z,13.50
2018-09-23T12:32:06.759Z,13.44
2018-09-23T12:33:06.665Z,13.50
2018-09-23T12:34:06.563Z,13.35
2018-09-23T12:35:06.460Z,13.28
2018-09-23T12:36:06.363Z,13.31
2018-09-23T12:37:06.262Z,13.27
2018-09-23T12:38:06.162Z,13.25
2018-09-23T12:39:06.062Z,13.31
2018-09-23T12:40:05.965Z,13.35
2018-09-23T12:41:05.864Z,13.25
2018-09-23T12:42:05.764Z,13.31
2018-09-23T12:43:05.665Z,13.20
2018-09-23T12:44:05.554Z,13.31
2018-09-23T12:45:05.454Z,13.25
2018-09-23T12:46:05.380Z,13.28
2018-09-23T12:47:05.253Z,13.28
2018-09-23T12:48:05.155Z,13.31
2018-09-23T12:49:05.054Z,13.38
2018-09-23T12:50:04.955Z,13.38
2018-09-23T12:51:04.857Z,13.28
2018-09-23T12:52:04.756Z,13.22
2018-09-23T12:53:04.657Z,13.25